Time;durP1;ratioP1;P1;durP2;ratioP2;P2;SDS_P1;SDS_P2;PMS_P1;PMS_P2;Temp;Humidity;BMP_temperature;BMP_pressure;BME280_temperature;BME280_humidity;BME280_pressure;Samples;Min_cycle;Max_cycle;Signal;HPM_P1;HPM_P2
2022/11/07 00:00:14;;;;;;;5.05;4.70;;;;;;;8.95;100.00;100824.28;5222869;28;20086;-67
2022/11/07 00:02:44;;;;;;;4.78;4.40;;;;;;;8.95;100.00;100816.97;5222724;28;20086;-67
2022/11/07 00:05:15;;;;;;;6.22;4.80;;;;;;;8.87;100.00;100803.13;5220324;28;20032;-66
2022/11/07 00:07:45;;;;;;;5.53;5.13;;;;;;;9.03;100.00;100813.06;5221964;28;20107;-66
2022/11/07 00:10:16;;;;;;;4.00;3.80;;;;;;;8.97;100.00;100808.66;5222534;28;20065;-67
2022/11/07 00:12:46;;;;;;;5.13;4.72;;;;;;;9.00;100.00;100808.16;5222739;28;20119;-68
2022/11/07 00:15:17;;;;;;;5.50;4.18;;;;;;;9.09;100.00;100823.69;5222448;28;20667;-67
2022/11/07 00:17:48;;;;;;;9.40;4.60;;;;;;;9.11;100.00;100820.75;5222198;28;20021;-67
2022/11/07 00:20:18;;;;;;;9.52;5.07;;;;;;;9.16;100.00;100820.81;5222212;28;20035;-67
2022/11/07 00:22:49;;;;;;;4.38;4.10;;;;;;;9.13;100.00;100815.91;5222136;28;20159;-67
2022/11/07 00:25:19;;;;;;;5.82;4.15;;;;;;;9.01;100.00;100812.50;5221297;28;20029;-67
2022/11/07 00:27:49;;;;;;;5.07;4.65;;;;;;;8.86;100.00;100798.81;5221696;28;20415;-68
2022/11/07 00:30:20;;;;;;;7.00;4.68;;;;;;;8.85;100.00;100802.56;5221214;28;20446;-68
2022/11/07 00:32:50;;;;;;;7.30;4.47;;;;;;;8.84;100.00;100815.22;5221575;28;20086;-69
2022/11/07 00:35:21;;;;;;;7.03;5.35;;;;;;;8.91;100.00;100829.34;5221113;28;20025;-68
2022/11/07 00:37:53;;;;;;;5.47;4.95;;;;;;;8.86;100.00;100828.44;5222805;28;20021;-67
2022/11/07 00:40:24;;;;;;;5.85;4.78;;;;;;;8.88;100.00;100839.78;5220976;28;20116;-68
2022/11/07 00:42:54;;;;;;;7.03;4.80;;;;;;;8.87;100.00;100840.84;5220984;28;20025;-68
2022/11/07 00:45:25;;;;;;;7.22;4.65;;;;;;;8.85;100.00;100837.56;5220791;28;20131;-67
2022/11/07 00:47:55;;;;;;;5.43;5.10;;;;;;;9.02;100.00;100851.84;5221117;28;20021;-67
2022/11/07 00:50:26;;;;;;;6.75;5.05;;;;;;;9.05;100.00;100838.69;5222559;28;20052;-67
2022/11/07 00:52:56;;;;;;;7.18;5.38;;;;;;;8.94;100.00;100833.41;5221054;28;20147;-67
2022/11/07 01:02:21;;;;;;;9.95;5.90;;;;;;;8.91;100.00;100864.34;5434423;22;20249;-82
2022/11/07 01:05:09;;;;;;;6.28;4.38;;;;;;;8.88;100.00;100858.63;5213698;28;20021;-82
2022/11/07 01:07:39;;;;;;;6.60;5.20;;;;;;;8.87;100.00;100865.06;5207268;28;20033;-82
2022/11/07 01:10:10;;;;;;;9.20;5.07;;;;;;;8.82;100.00;100854.22;5207334;28;20062;-83
2022/11/07 01:12:40;;;;;;;4.95;4.45;;;;;;;8.56;100.00;100818.81;5206671;28;20022;-83
2022/11/07 01:15:11;;;;;;;9.32;5.28;;;;;;;8.75;100.00;100851.69;5237249;22;20521;-86
2022/11/07 01:17:41;;;;;;;7.38;5.15;;;;;;;8.34;100.00;100797.19;5231712;28;20519;-87
2022/11/07 01:20:11;;;;;;;6.43;5.13;;;;;;;8.57;100.00;100819.63;5233177;28;20029;-87
2022/11/07 01:22:42;;;;;;;9.90;5.13;;;;;;;8.75;100.00;100860.56;5231588;28;20048;-86
2022/11/07 01:25:12;;;;;;;8.60;5.43;;;;;;;8.88;100.00;100882.88;5232665;28;20432;-86
2022/11/07 01:27:42;;;;;;;8.43;5.22;;;;;;;8.89;100.00;100871.84;5233078;28;20031;-86
2022/11/07 01:30:13;;;;;;;9.95;5.63;;;;;;;8.39;100.00;100818.75;5232518;28;20075;-86
2022/11/07 01:32:43;;;;;;;8.68;6.18;;;;;;;8.83;100.00;100880.09;5232283;28;20025;-86
2022/11/07 01:35:14;;;;;;;11.80;6.93;;;;;;;8.82;100.00;100881.16;5231248;28;20025;-86
2022/11/07 01:37:45;;;;;;;6.82;6.22;;;;;;;8.61;100.00;100851.19;5234571;28;20036;-87
2022/11/07 01:40:15;;;;;;;6.28;5.78;;;;;;;8.51;100.00;100831.34;5235269;28;20021;-87
2022/11/07 01:42:46;;;;;;;11.63;5.55;;;;;;;8.62;100.00;100863.59;5236559;28;20049;-87
2022/11/07 01:45:22;;;;;;;10.50;6.72;;;;;;;8.31;100.00;100829.09;5236643;28;20047;-87
2022/11/07 01:47:57;;;;;;;6.93;6.15;;;;;;;8.70;100.00;100878.50;5236995;28;20029;-88
2022/11/07 01:50:29;;;;;;;12.85;4.88;;;;;;;8.75;100.00;100884.00;5236790;28;20025;-87
2022/11/07 01:52:59;;;;;;;5.80;5.10;;;;;;;8.62;100.00;100863.59;5237513;28;20017;-87
2022/11/07 01:55:34;;;;;;;10.45;5.90;;;;;;;8.51;100.00;100828.66;5235115;28;20024;-88
2022/11/07 01:58:07;;;;;;;5.78;4.97;;;;;;;8.39;100.00;100817.94;5236739;28;20033;-87
2022/11/07 02:00:38;;;;;;;6.43;5.78;;;;;;;8.68;100.00;100853.69;5234679;28;20048;-87
2022/11/07 02:03:14;;;;;;;13.25;6.00;;;;;;;8.54;100.00;100820.09;5234779;28;20025;-87
2022/11/07 02:05:54;;;;;;;15.30;4.65;;;;;;;8.74;100.00;100848.16;5234772;28;20053;-87
2022/11/07 02:08:27;;;;;;;7.78;4.20;;;;;;;8.92;100.00;100889.41;5235068;28;20495;-87
2022/11/07 02:10:59;;;;;;;14.48;6.13;;;;;;;8.84;100.00;100861.00;5235175;28;20036;-88
2022/11/07 02:13:30;;;;;;;7.55;5.43;;;;;;;8.80;100.00;100847.19;5237821;28;20017;-87
2022/11/07 02:16:03;;;;;;;8.80;5.95;;;;;;;8.80;100.00;100855.28;5244716;28;20037;-87
2022/11/07 02:18:35;;;;;;;12.93;6.55;;;;;;;8.70;100.00;100824.66;5244845;28;20035;-87
2022/11/07 02:21:16;;;;;;;17.73;5.35;;;;;;;8.83;100.00;100834.31;5244178;28;20025;-87
2022/11/07 02:23:59;;;;;;;5.95;5.38;;;;;;;8.90;100.00;100837.66;5239695;28;20025;-88
2022/11/07 02:26:30;;;;;;;5.18;4.70;;;;;;;9.13;100.00;100876.00;5246115;28;20021;-88
2022/11/07 02:29:06;;;;;;;7.10;6.40;;;;;;;9.22;100.00;100876.41;5248506;28;20028;-88
2022/11/07 02:31:36;;;;;;;8.57;5.28;;;;;;;8.91;100.00;100818.56;5248122;28;20017;-87
2022/11/07 02:34:07;;;;;;;4.93;3.83;;;;;;;9.27;100.00;100872.97;5247155;28;20533;-87
2022/11/07 02:36:37;;;;;;;4.97;4.28;;;;;;;9.15;100.00;100851.50;5248307;28;20028;-90
2022/11/07 02:39:08;;;;;;;4.65;4.22;;;;;;;9.24;100.00;100860.78;5248305;28;20051;-88
2022/11/07 02:41:38;;;;;;;7.85;5.35;;;;;;;9.29;100.00;100851.97;5246656;28;20059;-86
2022/11/07 02:44:11;;;;;;;7.95;3.95;;;;;;;9.49;100.00;100879.22;5240884;28;20073;-87
2022/11/07 02:46:42;;;;;;;8.80;5.18;;;;;;;9.52;100.00;100875.22;5226264;28;20033;-87
2022/11/07 02:49:12;;;;;;;6.97;4.13;;;;;;;9.25;100.00;100840.88;5244587;28;20028;-87
2022/11/07 02:51:43;;;;;;;11.85;5.97;;;;;;;9.08;100.00;100813.16;5244398;28;20092;-87
2022/11/07 02:54:13;;;;;;;6.47;4.65;;;;;;;9.54;100.00;100870.38;5247329;28;20025;-87
2022/11/07 02:56:44;;;;;;;5.18;4.20;;;;;;;9.27;100.00;100830.66;5246176;28;20031;-87
2022/11/07 02:59:14;;;;;;;7.28;4.82;;;;;;;9.51;100.00;100873.59;5245130;28;20048;-87
2022/11/07 03:01:44;;;;;;;7.40;4.35;;;;;;;9.47;100.00;100870.56;5245042;28;20024;-87
2022/11/07 03:04:15;;;;;;;15.43;4.38;;;;;;;9.46;100.00;100837.41;5243298;28;20036;-87
2022/11/07 03:06:45;;;;;;;8.93;4.40;;;;;;;9.63;100.00;100869.72;5241314;28;20079;-87
2022/11/07 03:09:16;;;;;;;5.50;3.67;;;;;;;9.76;100.00;100890.13;5222051;28;20021;-87
2022/11/07 03:11:46;;;;;;;12.68;4.30;;;;;;;9.54;100.00;100827.25;5240358;28;20021;-87
2022/11/07 03:14:16;;;;;;;6.28;5.10;;;;;;;9.75;100.00;100875.81;5238477;28;20024;-86
2022/11/07 03:16:47;;;;;;;10.50;4.88;;;;;;;9.45;100.00;100803.44;5240232;28;20308;-87
2022/11/07 03:19:17;;;;;;;15.30;6.05;;;;;;;9.63;100.00;100853.53;5237836;28;20443;-87
2022/11/07 03:21:51;;;;;;;4.85;4.45;;;;;;;9.89;100.00;100875.44;5245256;28;20553;-86
2022/11/07 03:24:22;;;;;;;6.82;3.88;;;;;;;9.39;100.00;100785.56;5242713;28;20028;-87
2022/11/07 03:26:52;;;;;;;5.57;4.70;;;;;;;9.41;100.00;100813.09;5240393;28;20028;-88
2022/11/07 03:29:23;;;;;;;6.43;3.42;;;;;;;9.87;100.00;100878.38;5235913;28;20029;-88
2022/11/07 03:31:53;;;;;;;4.60;3.83;;;;;;;9.35;100.00;100786.31;5239869;28;20028;-86
2022/11/07 03:34:23;;;;;;;5.55;4.55;;;;;;;9.87;100.00;100870.28;5246451;28;20009;-88
2022/11/07 03:36:54;;;;;;;10.68;2.90;;;;;;;9.57;100.00;100837.53;5252244;28;20025;-88
2022/11/07 03:39:24;;;;;;;10.70;4.63;;;;;;;9.14;100.00;100786.03;5250121;28;20032;-87
2022/11/07 03:41:55;;;;;;;6.55;4.72;;;;;;;9.72;100.00;100900.59;5239343;28;20028;-87
2022/11/07 03:44:25;;;;;;;7.35;5.00;;;;;;;9.00;100.00;100781.22;5233841;28;20032;-89
2022/11/07 03:46:55;;;;;;;7.15;4.72;;;;;;;9.07;100.00;100780.00;5234861;28;20067;-87
2022/11/07 03:49:26;;;;;;;16.55;5.15;;;;;;;8.93;100.00;100765.28;5232990;28;20021;-87
2022/11/07 03:51:56;;;;;;;8.60;4.55;;;;;;;8.98;100.00;100796.81;5233180;28;20017;-87
2022/11/07 03:54:26;;;;;;;13.23;4.00;;;;;;;9.07;100.00;100808.81;5232278;28;20021;-87
2022/11/07 03:56:57;;;;;;;5.05;4.40;;;;;;;9.32;100.00;100857.69;5232537;28;20236;-88
2022/11/07 03:59:27;;;;;;;10.18;5.18;;;;;;;9.05;100.00;100809.06;5231775;28;20082;-87
2022/11/07 04:01:57;;;;;;;26.63;6.03;;;;;;;9.18;100.00;100842.94;5233222;28;20517;-87
2022/11/07 04:04:28;;;;;;;8.27;4.82;;;;;;;8.99;100.00;100817.31;5232154;28;20090;-86
2022/11/07 04:06:58;;;;;;;7.70;5.07;;;;;;;9.02;100.00;100825.72;5233751;28;20074;-89
2022/11/07 04:09:29;;;;;;;13.65;5.93;;;;;;;8.98;100.00;100834.53;5232518;28;20029;-88
2022/11/07 04:17:37;;;;;;;5.18;4.53;;;;;;;9.01;100.00;100842.94;5234212;28;20036;-89
2022/11/07 04:20:08;;;;;;;14.60;4.90;;;;;;;8.87;100.00;100822.00;5233549;28;20021;-87
2022/11/07 04:22:38;;;;;;;4.38;4.03;;;;;;;9.25;100.00;100883.97;5234030;28;20029;-87
2022/11/07 04:25:09;;;;;;;5.50;5.05;;;;;;;9.26;100.00;100882.91;5232191;28;20059;-87
2022/11/07 04:27:42;;;;;;;7.07;5.32;;;;;;;8.90;100.00;100818.81;5232340;28;20100;-88
2022/11/07 04:30:18;;;;;;;5.60;4.55;;;;;;;9.31;100.00;100874.91;5232601;28;20021;-87
2022/11/07 04:32:54;;;;;;;4.95;4.20;;;;;;;9.36;100.00;100887.66;5233752;28;20183;-87
2022/11/07 04:35:28;;;;;;;16.88;5.68;;;;;;;9.22;100.00;100873.72;5231500;28;20051;-88
2022/11/07 04:37:59;;;;;;;13.13;6.63;;;;;;;9.22;100.00;100865.63;5232235;28;20041;-88
2022/11/07 04:40:30;;;;;;;10.95;5.88;;;;;;;9.30;100.00;100862.50;5231910;28;20032;-88
2022/11/07 04:43:02;;;;;;;9.73;4.32;;;;;;;9.39;100.00;100879.06;5233579;28;20047;-87
2022/11/07 04:45:32;;;;;;;8.30;5.93;;;;;;;9.21;100.00;100841.63;5231727;28;20391;-89
2022/11/07 04:48:03;;;;;;;10.65;4.13;;;;;;;9.58;100.00;100885.00;5232049;28;20051;-88
2022/11/07 04:50:34;;;;;;;20.27;5.78;;;;;;;9.74;100.00;100893.06;5232021;28;20494;-87
2022/11/07 04:53:04;;;;;;;7.20;4.03;;;;;;;9.72;100.00;100886.28;5232384;28;20021;-87
2022/11/07 04:55:35;;;;;;;16.13;5.15;;;;;;;9.46;100.00;100837.41;5233238;28;20029;-87
2022/11/07 04:58:05;;;;;;;9.57;4.28;;;;;;;9.29;100.00;100817.75;5232380;28;20025;-89
2022/11/07 05:00:36;;;;;;;19.67;6.88;;;;;;;9.88;100.00;100901.59;5233419;28;20029;-88
2022/11/07 05:03:07;;;;;;;19.90;5.57;;;;;;;9.92;100.00;100894.63;5232619;28;20025;-87
2022/11/07 05:05:38;;;;;;;9.90;4.53;;;;;;;9.81;100.00;100872.13;5231621;28;20390;-87
2022/11/07 05:08:08;;;;;;;13.43;4.90;;;;;;;9.55;100.00;100821.59;5232044;28;20036;-86
2022/11/07 05:10:39;;;;;;;8.63;4.32;;;;;;;9.65;100.00;100848.72;5233430;28;20017;-87
2022/11/07 05:13:09;;;;;;;11.60;5.00;;;;;;;9.67;100.00;100860.06;5236231;28;20051;-87
2022/11/07 05:15:40;;;;;;;11.63;5.50;;;;;;;9.70;100.00;100850.66;5236047;28;20035;-87
2022/11/07 05:18:10;;;;;;;7.65;4.65;;;;;;;9.54;100.00;100841.53;5236230;28;20050;-89
2022/11/07 05:20:40;;;;;;;8.30;4.05;;;;;;;9.97;100.00;100886.59;5235325;28;20391;-88
2022/11/07 05:23:11;;;;;;;9.40;4.93;;;;;;;10.00;100.00;100899.59;5236884;28;20111;-88
2022/11/07 05:25:42;;;;;;;11.00;4.30;;;;;;;9.86;100.00;100878.63;5235649;28;20029;-87
2022/11/07 05:28:15;;;;;;;7.07;4.15;;;;;;;10.06;100.00;100887.81;5236830;28;20055;-87
2022/11/07 05:30:46;;;;;;;11.13;5.68;;;;;;;9.46;100.00;100796.97;5237326;28;20023;-87
2022/11/07 05:33:17;;;;;;;10.73;5.32;;;;;;;10.11;100.00;100893.22;5235764;28;20457;-87
2022/11/07 05:35:47;;;;;;;7.15;4.78;;;;;;;9.87;100.00;100840.59;5236525;28;20544;-88
2022/11/07 05:38:18;;;;;;;5.03;4.60;;;;;;;10.18;100.00;100894.94;5237229;28;20025;-89
2022/11/07 05:40:48;;;;;;;6.15;5.18;;;;;;;9.78;100.00;100848.34;5236772;28;20075;-88
2022/11/07 05:43:19;;;;;;;13.45;5.88;;;;;;;9.84;100.00;100843.81;5235777;28;20033;-90
2022/11/07 05:45:51;;;;;;;8.52;5.13;;;;;;;9.68;100.00;100815.03;5235939;28;20057;-87
2022/11/07 05:48:21;;;;;;;6.43;5.15;;;;;;;10.21;100.00;100895.28;5237177;28;20406;-87
2022/11/07 05:50:52;;;;;;;6.10;5.32;;;;;;;10.26;100.00;100899.91;5235532;28;20017;-87
2022/11/07 05:53:24;;;;;;;10.18;5.68;;;;;;;10.28;100.00;100895.91;5234476;28;20033;-88
2022/11/07 05:56:13;;;;;;;14.05;4.88;;;;;;;10.23;100.00;100892.31;5236310;28;20069;-89
2022/11/07 05:58:45;;;;;;;6.90;4.78;;;;;;;10.02;100.00;100854.28;5238039;28;20076;-90
2022/11/07 06:01:16;;;;;;;11.77;4.93;;;;;;;9.75;100.00;100826.47;5240203;28;20025;-89
2022/11/07 06:03:46;;;;;;;8.02;6.05;;;;;;;9.92;100.00;100859.56;5237991;28;20071;-89
2022/11/07 06:06:17;;;;;;;9.30;5.40;;;;;;;10.02;100.00;100864.28;5236562;28;20036;-88
2022/11/07 06:08:47;;;;;;;23.67;4.90;;;;;;;9.67;100.00;100816.09;5237949;28;20028;-88
2022/11/07 06:11:18;;;;;;;9.07;5.20;;;;;;;9.95;100.00;100850.97;5235933;28;20475;-88
2022/11/07 06:13:48;;;;;;;6.95;4.57;;;;;;;10.18;100.00;100887.66;5222376;28;20056;-88
2022/11/07 06:16:19;;;;;;;9.50;5.60;;;;;;;9.76;100.00;100847.78;5217277;28;20052;-89
2022/11/07 06:18:49;;;;;;;8.07;3.58;;;;;;;10.34;100.00;100918.38;5217641;28;20021;-89
2022/11/07 06:21:20;;;;;;;11.40;5.72;;;;;;;10.30;100.00;100926.16;5216809;28;20044;-89
2022/11/07 06:23:50;;;;;;;8.85;4.00;;;;;;;9.81;100.00;100842.44;5214986;28;20484;-89
2022/11/07 06:26:30;;;;;;;10.27;5.03;;;;;;;9.86;100.00;100840.84;5219101;28;20079;-89
2022/11/07 06:29:04;;;;;;;11.73;5.88;;;;;;;9.81;100.00;100842.44;5219545;28;20026;-89
2022/11/07 06:31:36;;;;;;;6.50;4.88;;;;;;;10.29;100.00;100918.31;5203359;28;20113;-89
2022/11/07 06:34:07;;;;;;;12.18;4.72;;;;;;;9.69;100.00;100827.44;5219449;28;20032;-89
2022/11/07 06:36:37;;;;;;;15.30;5.15;;;;;;;9.67;100.00;100829.59;5218854;28;20535;-87
2022/11/07 06:39:12;;;;;;;7.80;4.32;;;;;;;10.54;100.00;100953.69;5218951;28;20052;-89
2022/11/07 06:41:43;;;;;;;11.15;5.40;;;;;;;9.17;100.00;100733.53;5220736;28;20029;-90
2022/11/07 06:44:15;;;;;;;4.25;3.80;;;;;;;9.68;100.00;100837.41;5219703;28;20014;-90
2022/11/07 06:46:45;;;;;;;17.77;5.15;;;;;;;9.14;100.00;100752.91;5218611;28;20027;-90
2022/11/07 06:49:16;;;;;;;8.05;5.10;;;;;;;9.23;100.00;100770.28;5221189;28;20049;-91
2022/11/07 06:51:46;;;;;;;6.40;4.38;;;;;;;9.28;100.00;100770.31;5220162;28;20032;-91
2022/11/07 06:54:17;;;;;;;11.23;4.43;;;;;;;10.18;100.00;100895.75;5222193;28;20049;-90
2022/11/07 06:56:51;;;;;;;7.75;5.43;;;;;;;9.55;100.00;100800.03;5219539;28;20056;-92
2022/11/07 06:59:21;;;;;;;8.48;7.38;;;;;;;10.56;100.00;100991.25;5218319;28;20075;-89
2022/11/07 07:01:52;;;;;;;5.47;4.85;;;;;;;9.97;100.00;100883.91;5217087;28;20034;-89
2022/11/07 07:04:22;;;;;;;8.85;3.83;;;;;;;10.54;100.00;100969.88;5214242;28;20534;-90
2022/11/07 07:06:53;;;;;;;8.98;4.45;;;;;;;9.71;100.00;100857.69;5214096;28;20052;-89
2022/11/07 07:09:23;;;;;;;22.17;5.50;;;;;;;9.87;100.00;100891.03;5215535;28;20145;-90
2022/11/07 07:11:54;;;;;;;7.93;5.80;;;;;;;9.95;100.00;100893.31;5216025;28;20022;-89
2022/11/07 07:14:24;;;;;;;8.32;4.95;;;;;;;10.25;100.00;100946.88;5215770;28;20026;-91
2022/11/07 07:16:57;;;;;;;7.25;3.90;;;;;;;10.19;100.00;100939.72;5216577;28;20021;-91
2022/11/07 07:19:28;;;;;;;7.43;4.80;;;;;;;10.53;100.00;100987.16;5218142;28;20029;-90
2022/11/07 07:21:58;;;;;;;14.32;5.68;;;;;;;10.60;100.00;100979.69;5218597;28;20032;-89
2022/11/07 07:24:29;;;;;;;19.52;5.15;;;;;;;9.99;100.00;100911.44;5219393;28;20026;-90
2022/11/07 07:26:59;;;;;;;6.75;3.72;;;;;;;10.12;100.00;100919.16;5219202;28;20030;-92
2022/11/07 07:29:30;;;;;;;11.82;5.25;;;;;;;10.46;100.00;100973.03;5221451;28;20029;-91
2022/11/07 07:32:00;;;;;;;7.53;3.88;;;;;;;10.44;100.00;100972.47;5222706;28;20022;-92
2022/11/07 07:34:31;;;;;;;5.20;3.92;;;;;;;10.12;100.00;100902.13;5222951;28;20056;-91
2022/11/07 07:37:02;;;;;;;15.32;4.63;;;;;;;9.96;100.00;100865.28;5223917;28;20021;-91
2022/11/07 07:39:33;;;;;;;19.30;4.82;;;;;;;9.45;100.00;100791.84;5207915;28;20057;-92
2022/11/07 07:42:06;;;;;;;7.88;3.53;;;;;;;10.80;100.00;101016.91;5224643;28;20045;-91
2022/11/07 07:44:37;;;;;;;12.88;5.30;;;;;;;9.54;100.00;100784.94;5224935;28;20037;-93
2022/11/07 07:47:12;;;;;;;11.60;4.65;;;;;;;9.70;100.00;100829.09;5225115;28;20030;-91
2022/11/07 07:50:02;;;;;;;13.98;6.45;;;;;;;9.38;100.00;100785.81;5225520;28;20048;-92
2022/11/07 07:52:33;;;;;;;9.77;4.57;;;;;;;10.67;100.00;100991.13;5225505;28;20025;-92
2022/11/07 07:55:08;;;;;;;15.07;5.32;;;;;;;9.50;100.00;100756.06;5225575;28;20029;-91
2022/11/07 07:57:44;;;;;;;6.63;4.57;;;;;;;9.67;100.00;100808.00;5224905;28;20030;-91
2022/11/07 08:00:24;;;;;;;20.65;5.53;;;;;;;10.92;100.00;100966.25;5226140;28;20022;-91
2022/11/07 08:03:11;;;;;;;4.18;3.33;;;;;;;11.21;100.00;101003.81;5223245;28;20130;-92
2022/11/07 08:05:44;;;;;;;14.90;4.68;;;;;;;9.87;100.00;100812.81;5224643;28;20036;-91
2022/11/07 08:08:16;;;;;;;6.80;5.00;;;;;;;11.20;100.00;101016.50;5224730;28;20031;-91
2022/11/07 08:10:52;;;;;;;8.02;6.10;;;;;;;9.94;100.00;100837.72;5224205;28;20049;-92
2022/11/07 08:13:26;;;;;;;10.73;4.43;;;;;;;11.19;100.00;101066.22;5223643;28;20510;-91
2022/11/07 08:15:57;;;;;;;7.63;4.60;;;;;;;9.74;100.00;100809.47;5205752;28;20496;-91
2022/11/07 08:18:31;;;;;;;7.18;5.78;;;;;;;10.13;100.00;100839.00;5222200;28;20032;-90
2022/11/07 08:21:02;;;;;;;13.15;6.95;;;;;;;9.97;100.00;100826.44;5222366;28;20052;-91
2022/11/07 08:23:34;;;;;;;4.72;4.07;;;;;;;10.44;100.00;100877.97;5221907;28;20033;-92
2022/11/07 08:26:05;;;;;;;11.88;3.83;;;;;;;10.40;100.00;100860.66;5222015;28;20032;-90
2022/11/07 08:28:36;;;;;;;5.32;4.55;;;;;;;9.86;100.00;100800.41;5222198;28;20025;-91
2022/11/07 08:31:10;;;;;;;7.63;5.30;;;;;;;9.92;100.00;100784.03;5206152;28;20017;-91
2022/11/07 08:33:41;;;;;;;9.60;4.65;;;;;;;10.73;100.00;100903.63;5221436;28;20021;-90
2022/11/07 08:36:12;;;;;;;11.00;5.72;;;;;;;9.79;100.00;100768.25;5221276;28;20049;-91
2022/11/07 08:38:43;;;;;;;9.88;4.75;;;;;;;10.58;100.00;100886.50;5221130;28;20037;-90
2022/11/07 08:41:18;;;;;;;10.52;4.28;;;;;;;9.91;100.00;100782.41;5221052;28;20022;-90
2022/11/07 08:43:48;;;;;;;5.50;3.65;;;;;;;9.98;100.00;100793.81;5220476;28;20029;-90
2022/11/07 08:46:19;;;;;;;19.67;4.97;;;;;;;11.00;100.00;100937.91;5223053;28;20056;-90
2022/11/07 08:48:50;;;;;;;5.72;4.00;;;;;;;10.39;100.00;100869.84;5224952;28;20040;-90
2022/11/07 08:51:20;;;;;;;14.38;5.35;;;;;;;11.11;100.00;100983.72;5225429;28;20021;-89
2022/11/07 08:53:51;;;;;;;10.15;4.97;;;;;;;10.71;100.00;100903.09;5225322;28;20025;-90
2022/11/07 08:56:21;;;;;;;8.00;4.90;;;;;;;11.56;100.00;101038.41;5225124;28;20032;-90
2022/11/07 08:58:52;;;;;;;12.82;6.18;;;;;;;10.64;100.00;100878.19;5224425;28;20025;-90
2022/11/07 09:01:23;;;;;;;7.22;4.60;;;;;;;11.63;100.00;101039.03;5226110;28;20033;-90
2022/11/07 09:03:53;;;;;;;12.05;5.07;;;;;;;11.39;100.00;101008.81;5225001;28;20480;-91
2022/11/07 09:06:23;;;;;;;8.75;4.63;;;;;;;11.15;100.00;100965.91;5223787;28;20033;-89
2022/11/07 09:08:54;;;;;;;5.13;4.15;;;;;;;11.01;100.00;100940.38;5224401;28;20045;-90
2022/11/07 09:11:25;;;;;;;5.70;4.80;;;;;;;11.53;100.00;101020.84;5224457;28;20029;-89
2022/11/07 09:13:56;;;;;;;12.85;5.40;;;;;;;11.07;100.00;100935.81;5224069;28;20030;-90
2022/11/07 09:16:27;;;;;;;4.85;4.45;;;;;;;11.24;100.00;100927.59;5224595;28;20028;-90
2022/11/07 09:18:57;;;;;;;8.38;5.10;;;;;;;11.83;100.00;101020.28;5223863;28;20081;-89
2022/11/07 09:21:28;;;;;;;7.13;5.63;;;;;;;11.34;100.00;100920.38;5223838;28;20029;-89
2022/11/07 09:23:58;;;;;;;17.90;5.78;;;;;;;11.91;100.00;100984.59;5225727;28;20025;-90
2022/11/07 09:26:28;;;;;;;5.10;4.00;;;;;;;11.94;100.00;100959.72;5228314;28;20029;-90
2022/11/07 09:28:59;;;;;;;9.80;5.13;;;;;;;11.91;100.00;100960.25;5230082;28;20025;-89
2022/11/07 09:31:29;;;;;;;14.30;5.65;;;;;;;12.01;100.00;100941.38;5229002;28;20025;-89
2022/11/07 09:34:00;;;;;;;11.25;4.72;;;;;;;12.30;100.00;100979.66;5228476;28;20029;-89
2022/11/07 09:36:30;;;;;;;14.85;5.55;;;;;;;12.20;100.00;100965.25;5229312;28;20021;-89
2022/11/07 09:39:01;;;;;;;4.78;4.05;;;;;;;12.31;100.00;100958.81;5228307;28;20032;-89
2022/11/07 09:42:04;;;;;;;8.02;5.38;;;;;;;12.79;100.00;101030.75;5229243;28;20084;-89
2022/11/07 09:44:53;;;;;;;8.75;5.60;;;;;;;12.81;100.00;101034.84;5231154;28;20002;-89
2022/11/07 09:47:43;;;;;;;7.80;4.90;;;;;;;12.78;100.00;101021.81;5230858;28;20028;-92
2022/11/07 09:50:37;;;;;;;14.82;4.78;;;;;;;12.92;100.00;101043.00;5229966;28;20057;-89
2022/11/07 09:53:32;;;;;;;7.25;4.85;;;;;;;13.07;100.00;101038.44;5226746;28;20044;-89
2022/11/07 09:56:04;;;;;;;13.27;6.10;;;;;;;12.92;100.00;101005.06;5223431;28;20025;-89
2022/11/07 09:58:42;;;;;;;18.40;5.90;;;;;;;13.38;100.00;101055.59;5222960;28;20032;-89
2022/11/07 10:01:15;;;;;;;14.80;4.40;;;;;;;12.94;100.00;100967.66;5223809;28;20492;-89
2022/11/07 10:03:46;;;;;;;10.88;4.00;;;;;;;13.10;100.00;100980.97;5223166;28;20048;-89
2022/11/07 10:06:32;;;;;;;10.70;4.47;;;;;;;13.38;100.00;101003.25;5224595;28;20045;-88
2022/11/07 10:09:27;;;;;;;6.18;4.95;;;;;;;13.70;100.00;101059.94;5225381;28;20029;-88
2022/11/07 10:12:23;;;;;;;8.60;4.60;;;;;;;13.13;100.00;100975.00;5221697;28;20029;-88
2022/11/07 10:15:07;;;;;;;13.60;5.15;;;;;;;13.73;100.00;101065.66;5222740;28;20048;-89
2022/11/07 10:18:01;;;;;;;10.05;3.50;;;;;;;13.52;100.00;101007.06;5222868;28;20036;-88
2022/11/07 10:20:54;;;;;;;9.50;4.07;;;;;;;13.57;100.00;101000.81;5222402;28;20029;-88
2022/11/07 10:23:50;;;;;;;6.97;3.22;;;;;;;14.16;100.00;101066.94;5222240;28;20026;-89
2022/11/07 10:26:24;;;;;;;6.68;4.45;;;;;;;13.86;100.00;101018.13;5221980;28;20679;-89
2022/11/07 10:29:07;;;;;;;7.20;3.63;;;;;;;14.27;100.00;101069.66;5222231;28;20029;-89
2022/11/07 10:31:42;;;;;;;12.60;3.45;;;;;;;13.72;100.00;101009.75;5222162;28;20021;-88
2022/11/07 10:34:20;;;;;;;7.20;3.75;;;;;;;13.71;100.00;101026.31;5222448;28;20036;-89
2022/11/07 10:36:51;;;;;;;7.80;3.97;;;;;;;13.57;100.00;100998.09;5220669;28;20024;-89
2022/11/07 10:39:21;;;;;;;8.48;3.60;;;;;;;13.83;100.00;101054.81;5222157;28;20021;-88
2022/11/07 10:42:08;;;;;;;7.82;5.63;;;;;;;13.47;100.00;101002.44;5225044;28;20025;-88
2022/11/07 10:44:41;;;;;;;8.35;3.83;;;;;;;13.56;100.00;101007.31;5222136;28;20064;-88
2022/11/07 10:47:19;;;;;;;4.82;4.28;;;;;;;14.14;100.00;101074.59;5224915;28;20052;-87
2022/11/07 10:50:03;;;;;;;7.35;4.13;;;;;;;14.29;100.00;101090.03;5220735;28;20439;-88
2022/11/07 10:52:33;;;;;;;7.80;4.13;;;;;;;14.08;100.00;101058.56;5220279;28;20037;-87
2022/11/07 10:55:06;;;;;;;3.95;2.92;;;;;;;14.41;100.00;101087.88;5219819;28;20036;-87
2022/11/07 10:57:37;;;;;;;11.25;4.60;;;;;;;13.81;100.00;101002.69;5220939;28;20147;-88
2022/11/07 11:00:30;;;;;;;5.30;3.78;;;;;;;13.66;100.00;100999.16;5224302;28;20017;-89
2022/11/07 11:03:01;;;;;;;5.38;3.00;;;;;;;13.88;100.00;101021.38;5220735;28;20025;-88
2022/11/07 11:05:47;;;;;;;6.53;4.00;;;;;;;14.34;100.00;101078.34;5221625;28;20027;-89
2022/11/07 11:08:20;;;;;;;5.15;4.63;;;;;;;13.73;100.00;100984.22;5219251;28;20032;-88
2022/11/07 11:10:51;;;;;;;6.90;4.70;;;;;;;13.77;100.00;100998.88;5219180;28;20036;-87
2022/11/07 11:13:33;;;;;;;8.02;3.65;;;;;;;14.20;100.00;101067.22;5221105;28;20085;-89
2022/11/07 11:16:26;;;;;;;10.50;4.70;;;;;;;14.19;100.00;101069.13;5222829;28;20041;-87
2022/11/07 11:18:59;;;;;;;4.78;4.32;;;;;;;13.69;100.00;100990.47;5220051;28;20110;-87
2022/11/07 11:21:42;;;;;;;6.20;4.80;;;;;;;14.17;100.00;101055.00;5220195;28;20109;-86
2022/11/07 11:24:29;;;;;;;9.90;4.35;;;;;;;14.23;100.00;101063.13;5219157;28;20033;-87
2022/11/07 11:27:05;;;;;;;11.77;3.80;;;;;;;13.60;100.00;100992.91;5220560;28;20032;-87
2022/11/07 11:29:42;;;;;;;8.35;4.22;;;;;;;13.44;100.00;100973.13;5220349;28;20029;-87
2022/11/07 11:32:31;;;;;;;6.00;3.85;;;;;;;13.67;100.00;101006.22;5219680;28;20025;-86
2022/11/07 11:35:18;;;;;;;6.15;4.82;;;;;;;14.06;100.00;101072.41;5218767;28;20053;-87
2022/11/07 11:37:59;;;;;;;12.32;5.97;;;;;;;14.08;100.00;101077.56;5218917;28;20044;-86
2022/11/07 11:40:35;;;;;;;15.80;5.47;;;;;;;13.71;100.00;100982.88;5219387;28;20021;-88
2022/11/07 11:43:22;;;;;;;5.82;3.30;;;;;;;13.90;100.00;101000.22;5220414;28;20037;-88
2022/11/07 11:46:29;;;;;;;6.20;4.43;;;;;;;14.33;100.00;101016.94;5218898;28;20025;-87
2022/11/07 11:49:10;;;;;;;5.95;3.33;;;;;;;14.71;100.00;101054.34;5220154;28;20448;-87
2022/11/07 11:51:49;;;;;;;20.33;4.85;;;;;;;14.84;100.00;101074.66;5218566;28;20025;-87
2022/11/07 11:54:19;;;;;;;9.27;3.88;;;;;;;14.87;100.00;101063.22;5219770;28;20032;-87
2022/11/07 11:57:31;;;;;;;6.35;4.50;;;;;;;14.82;100.00;101031.41;5219961;28;20072;-87
2022/11/07 12:00:19;;;;;;;3.17;2.97;;;;;;;14.93;100.00;101072.16;5160617;28;20117;-87